Time;durP1;ratioP1;P1;durP2;ratioP2;P2;SDS_P1;SDS_P2;PMS_P1;PMS_P2;Temp;Humidity;BMP_temperature;BMP_pressure;BME280_temperature;BME280_humidity;BME280_pressure;Samples;Min_cycle;Max_cycle;Signal;HPM_P1;HPM_P2
2021/04/04 00:01:29;;;;;;;3.30;1.40;;;6.30;55.70;;;;;;6242963;23;20011;-79
2021/04/04 00:03:55;;;;;;;4.50;1.70;;;6.30;55.80;;;;;;6243515;23;20004;-78
2021/04/04 00:06:20;;;;;;;5.57;1.97;;;6.20;55.90;;;;;;6242838;23;20004;-79
2021/04/04 00:08:47;;;;;;;5.27;2.40;;;6.10;56.00;;;;;;6242828;23;20047;-80
2021/04/04 00:11:13;;;;;;;4.17;1.70;;;5.90;56.50;;;;;;6242542;23;20001;-79
2021/04/04 00:13:40;;;;;;;2.90;1.63;;;5.90;57.30;;;;;;6243381;23;20016;-78
2021/04/04 00:16:05;;;;;;;3.80;1.73;;;5.80;57.70;;;;;;6243594;23;20372;-79
2021/04/04 00:18:33;;;;;;;5.73;2.13;;;5.70;58.40;;;;;;6242528;23;20066;-79
2021/04/04 00:20:58;;;;;;;4.37;1.93;;;5.70;58.00;;;;;;6245131;23;20395;-79
2021/04/04 00:23:24;;;;;;;4.00;1.73;;;5.60;58.40;;;;;;6243547;23;20079;-79
2021/04/04 00:25:50;;;;;;;3.53;1.80;;;5.50;58.30;;;;;;6244480;23;20012;-79
2021/04/04 00:28:16;;;;;;;4.60;1.97;;;5.30;58.00;;;;;;6245633;23;20450;-79
2021/04/04 00:30:41;;;;;;;2.93;1.70;;;5.20;58.80;;;;;;6244922;23;20050;-79
2021/04/04 00:33:07;;;;;;;2.23;1.47;;;5.20;58.40;;;;;;6246508;23;20004;-77
2021/04/04 00:35:33;;;;;;;6.30;1.80;;;5.20;58.30;;;;;;6244129;23;20000;-78
2021/04/04 00:37:59;;;;;;;3.50;1.80;;;5.20;58.30;;;;;;6270271;22;19996;-78
2021/04/04 00:40:32;;;;;;;3.23;1.50;;;5.10;58.40;;;;;;6245306;23;19996;-79
2021/04/04 00:42:58;;;;;;;2.97;1.70;;;5.10;58.40;;;;;;6245358;23;20091;-79
2021/04/04 00:45:36;;;;;;;3.67;1.60;;;5.10;58.50;;;;;;6246152;23;20004;-78
2021/04/04 00:48:02;;;;;;;4.67;1.60;;;5.10;59.20;;;;;;6271141;22;20031;-79
2021/04/04 00:50:31;;;;;;;3.77;1.60;;;5.00;59.10;;;;;;6244744;23;20007;-78
2021/04/04 00:52:58;;;;;;;4.57;1.60;;;5.00;59.30;;;;;;6246560;23;20004;-79
2021/04/04 00:55:24;;;;;;;5.17;2.20;;;5.00;59.20;;;;;;6246122;23;20000;-79
2021/04/04 00:57:51;;;;;;;4.03;1.60;;;5.00;59.00;;;;;;6245265;23;20008;-79
2021/04/04 01:00:21;;;;;;;3.63;1.83;;;4.90;58.70;;;;;;6269765;22;20012;-78
2021/04/04 01:02:49;;;;;;;3.53;1.67;;;5.00;58.90;;;;;;6246950;22;20031;-79
2021/04/04 01:05:16;;;;;;;2.80;1.77;;;5.00;58.80;;;;;;6244275;23;20099;-79
2021/04/04 01:07:47;;;;;;;3.37;2.10;;;5.00;59.20;;;;;;6246833;23;20046;-78
2021/04/04 01:10:13;;;;;;;3.53;1.80;;;4.90;59.20;;;;;;6243975;23;19996;-80
2021/04/04 01:12:49;;;;;;;5.10;1.80;;;4.90;59.40;;;;;;6246616;23;20031;-79
2021/04/04 01:15:44;;;;;;;3.93;1.70;;;4.90;59.40;;;;;;6244913;23;20000;-78
2021/04/04 01:18:29;;;;;;;5.00;1.63;;;4.90;59.60;;;;;;6218718;23;20000;-76
2021/04/04 01:20:58;;;;;;;3.40;1.57;;;4.80;59.50;;;;;;6244626;23;20026;-78
2021/04/04 01:23:58;;;;;;;5.80;2.10;;;4.80;59.80;;;;;;6245420;23;20004;-78
2021/04/04 01:27:05;;;;;;;4.47;1.80;;;4.70;60.00;;;;;;6243958;23;20121;-79
2021/04/04 01:29:35;;;;;;;3.63;1.70;;;4.70;60.70;;;;;;6152425;23;20006;-78
2021/04/04 01:32:01;;;;;;;5.50;1.70;;;4.60;61.20;;;;;;6248410;22;20035;-79
2021/04/04 01:34:28;;;;;;;3.63;1.80;;;4.70;60.60;;;;;;6243236;23;20812;-78
2021/04/04 01:36:59;;;;;;;3.83;2.27;;;4.60;60.70;;;;;;6244646;23;20007;-78
2021/04/04 01:39:29;;;;;;;3.57;1.90;;;4.60;61.00;;;;;;6245172;23;20031;-78
2021/04/04 01:41:56;;;;;;;3.87;1.90;;;4.50;61.30;;;;;;6245614;23;20046;-79
2021/04/04 01:44:23;;;;;;;3.83;2.00;;;4.50;62.30;;;;;;6243762;23;20012;-79
2021/04/04 01:46:52;;;;;;;4.20;1.97;;;4.40;61.00;;;;;;6244949;23;20078;-79
2021/04/04 01:49:20;;;;;;;3.77;1.83;;;4.40;61.00;;;;;;6245058;23;19996;-79
2021/04/04 01:51:46;;;;;;;5.60;2.13;;;4.40;61.60;;;;;;6244851;23;20024;-80
2021/04/04 01:54:13;;;;;;;5.90;2.10;;;4.40;61.40;;;;;;6244930;23;20035;-78
2021/04/04 01:56:39;;;;;;;4.70;1.97;;;4.40;61.30;;;;;;6244952;23;20004;-79
2021/04/04 01:59:06;;;;;;;4.40;1.87;;;4.40;61.10;;;;;;6244710;23;20477;-79
2021/04/04 02:01:32;;;;;;;3.70;2.00;;;4.30;61.50;;;;;;6269569;22;20008;-80
2021/04/04 02:04:06;;;;;;;2.57;1.83;;;4.30;61.80;;;;;;6246404;23;20009;-80
2021/04/04 02:06:33;;;;;;;5.33;2.07;;;4.20;62.10;;;;;;6269377;22;20095;-79
2021/04/04 02:09:00;;;;;;;3.63;1.97;;;4.30;61.70;;;;;;6245041;23;20015;-80
2021/04/04 02:11:30;;;;;;;3.40;1.80;;;4.30;60.80;;;;;;6243880;23;20008;-80
2021/04/04 02:13:55;;;;;;;3.77;1.57;;;4.10;61.00;;;;;;6244317;23;20023;-80
2021/04/04 02:16:22;;;;;;;3.57;1.77;;;4.10;61.60;;;;;;6243988;23;20012;-80
2021/04/04 02:18:48;;;;;;;3.53;1.60;;;3.90;62.40;;;;;;6245269;23;20004;-80
2021/04/04 02:21:15;;;;;;;5.40;1.60;;;3.80;62.50;;;;;;6243656;23;20066;-80
2021/04/04 02:23:41;;;;;;;3.87;1.77;;;3.80;62.20;;;;;;6244729;23;20087;-80
2021/04/04 02:26:07;;;;;;;3.80;1.83;;;3.80;63.00;;;;;;6245785;23;20028;-79
2021/04/04 02:28:33;;;;;;;5.13;2.00;;;3.80;62.50;;;;;;6243722;23;20054;-79
2021/04/04 02:31:00;;;;;;;3.70;1.97;;;3.80;62.80;;;;;;6246024;23;19993;-79
2021/04/04 02:33:37;;;;;;;3.07;1.67;;;3.70;63.10;;;;;;6243480;23;20012;-79
2021/04/04 02:36:12;;;;;;;5.93;1.70;;;3.80;62.60;;;;;;6244602;23;20035;-80
2021/04/04 02:38:41;;;;;;;4.53;1.90;;;3.80;62.40;;;;;;6245633;22;20067;-80
2021/04/04 02:41:10;;;;;;;4.93;2.13;;;3.80;62.80;;;;;;6245507;23;20011;-78
2021/04/04 02:43:39;;;;;;;3.97;1.80;;;3.80;63.20;;;;;;6243002;23;20032;-79
2021/04/04 02:46:09;;;;;;;3.70;1.67;;;3.80;63.20;;;;;;6245048;23;20107;-80
2021/04/04 02:48:46;;;;;;;5.47;2.10;;;3.70;63.40;;;;;;6243170;23;20015;-80
2021/04/04 02:51:20;;;;;;;4.73;2.03;;;3.80;63.40;;;;;;6243156;23;20091;-79
2021/04/04 02:53:49;;;;;;;3.83;2.27;;;3.80;63.40;;;;;;6244358;23;20011;-80
2021/04/04 02:56:18;;;;;;;5.03;2.00;;;3.70;63.50;;;;;;6243380;23;20030;-80
2021/04/04 02:58:45;;;;;;;5.77;1.83;;;3.70;63.60;;;;;;6244350;23;20008;-80
2021/04/04 03:01:14;;;;;;;3.83;1.80;;;3.70;63.40;;;;;;6244456;23;20007;-80
2021/04/04 03:03:42;;;;;;;4.20;1.77;;;3.70;63.80;;;;;;6245834;23;20004;-80
2021/04/04 03:06:09;;;;;;;4.47;1.77;;;3.60;63.60;;;;;;6243740;23;20007;-77
2021/04/04 03:08:40;;;;;;;3.93;1.70;;;3.60;64.90;;;;;;6243786;23;20011;-80
2021/04/04 03:11:06;;;;;;;5.40;1.80;;;3.60;64.60;;;;;;6244057;23;20004;-79
2021/04/04 03:13:34;;;;;;;3.63;1.83;;;3.50;64.10;;;;;;6243939;23;20019;-79
2021/04/04 03:16:01;;;;;;;3.83;1.60;;;3.60;63.60;;;;;;6243824;23;20019;-79
2021/04/04 03:18:28;;;;;;;4.27;2.23;;;3.50;63.80;;;;;;6242856;23;20018;-79
2021/04/04 03:20:55;;;;;;;6.73;1.73;;;3.50;64.10;;;;;;6243497;23;20054;-79
2021/04/04 03:23:21;;;;;;;2.67;1.57;;;3.50;63.80;;;;;;6244970;23;20474;-79
2021/04/04 03:25:48;;;;;;;4.90;1.80;;;3.40;64.60;;;;;;6244148;23;20004;-80
2021/04/04 03:28:17;;;;;;;4.97;1.80;;;3.50;64.50;;;;;;6268207;22;20013;-79
2021/04/04 03:30:45;;;;;;;5.67;1.93;;;3.50;64.30;;;;;;6243972;23;20004;-79
2021/04/04 03:33:17;;;;;;;6.03;2.00;;;3.50;64.40;;;;;;6243127;23;20012;-78
2021/04/04 03:35:45;;;;;;;3.40;1.73;;;3.50;64.50;;;;;;6269797;22;20000;-79
2021/04/04 03:38:12;;;;;;;6.53;1.93;;;3.50;64.20;;;;;;6244597;23;20026;-76
2021/04/04 03:40:39;;;;;;;5.23;1.93;;;3.50;64.10;;;;;;6244790;23;19996;-79
2021/04/04 03:43:30;;;;;;;5.70;2.00;;;3.50;64.10;;;;;;6243637;23;20091;-79
2021/04/04 03:46:03;;;;;;;4.03;2.08;;;3.50;63.70;;;;;;6242454;23;20378;-79
2021/04/04 03:48:30;;;;;;;5.37;1.87;;;3.50;64.10;;;;;;6244529;23;20370;-79
2021/04/04 03:50:58;;;;;;;4.37;2.23;;;3.40;64.20;;;;;;6243975;23;20015;-79
2021/04/04 03:53:26;;;;;;;3.37;1.83;;;3.30;64.60;;;;;;6244393;23;20028;-79
2021/04/04 03:55:54;;;;;;;5.10;2.10;;;3.20;65.20;;;;;;6243418;23;20000;-79
2021/04/04 03:58:22;;;;;;;4.07;2.07;;;3.20;65.40;;;;;;6244716;23;20451;-79
2021/04/04 04:00:50;;;;;;;5.57;2.10;;;3.20;65.70;;;;;;6245830;22;20000;-79
2021/04/04 04:03:17;;;;;;;4.90;2.00;;;3.20;65.50;;;;;;6244082;23;20074;-79
2021/04/04 04:05:45;;;;;;;3.20;1.77;;;3.20;65.70;;;;;;6245891;23;20016;-80
2021/04/04 04:08:11;;;;;;;4.47;2.27;;;3.20;66.10;;;;;;6219979;23;20015;-78
2021/04/04 04:10:40;;;;;;;5.60;2.10;;;3.20;66.30;;;;;;6245798;23;20004;-81
2021/04/04 04:13:06;;;;;;;6.63;2.10;;;3.20;66.30;;;;;;6245408;22;20061;-81
2021/04/04 04:15:32;;;;;;;3.00;1.97;;;3.20;66.10;;;;;;6245111;23;20043;-81
2021/04/04 04:18:02;;;;;;;2.83;1.93;;;3.20;66.30;;;;;;6245302;23;20004;-80
2021/04/04 04:20:28;;;;;;;5.17;2.30;;;3.20;66.50;;;;;;6246396;23;20092;-79
2021/04/04 04:22:57;;;;;;;3.00;1.60;;;3.20;66.20;;;;;;6245449;23;20440;-80
2021/04/04 04:25:25;;;;;;;5.97;2.37;;;3.20;66.30;;;;;;6245145;23;20008;-80
2021/04/04 04:27:52;;;;;;;4.60;1.67;;;3.20;66.40;;;;;;6245209;23;20139;-80
2021/04/04 04:30:18;;;;;;;3.93;1.80;;;3.10;66.40;;;;;;6244604;23;20007;-79
2021/04/04 04:32:46;;;;;;;5.37;2.07;;;3.30;66.00;;;;;;6271173;22;20482;-80
2021/04/04 04:35:12;;;;;;;4.87;1.97;;;3.40;65.90;;;;;;6245025;23;20004;-77
2021/04/04 04:37:40;;;;;;;5.13;2.00;;;3.50;65.50;;;;;;6271171;22;20008;-80
2021/04/04 04:40:09;;;;;;;4.27;1.80;;;3.50;65.60;;;;;;6271497;22;20008;-79
2021/04/04 04:42:39;;;;;;;8.60;2.40;;;3.40;65.60;;;;;;6244703;23;20004;-79
2021/04/04 04:45:06;;;;;;;4.27;1.87;;;3.40;65.50;;;;;;6245347;23;20012;-79
2021/04/04 04:47:33;;;;;;;6.30;1.87;;;3.30;65.70;;;;;;6244644;23;20431;-80
2021/04/04 04:49:58;;;;;;;6.27;1.93;;;3.30;65.80;;;;;;6271255;22;20031;-80
2021/04/04 04:52:24;;;;;;;3.77;1.73;;;3.30;65.60;;;;;;6244770;23;20335;-79
2021/04/04 04:54:50;;;;;;;5.73;1.60;;;3.20;66.00;;;;;;6246936;23;20012;-80
2021/04/04 04:57:16;;;;;;;5.13;1.70;;;3.20;66.00;;;;;;6244334;23;20505;-79
2021/04/04 04:59:44;;;;;;;5.23;2.27;;;3.10;66.60;;;;;;6245044;23;20008;-80
2021/04/04 05:02:11;;;;;;;4.33;2.07;;;3.00;66.20;;;;;;6246270;23;19992;-78
2021/04/04 05:04:36;;;;;;;3.53;1.80;;;3.00;66.20;;;;;;6245277;23;20427;-79
2021/04/04 05:07:03;;;;;;;3.83;2.10;;;2.90;66.90;;;;;;6246589;23;20011;-79
2021/04/04 05:09:32;;;;;;;6.10;2.20;;;3.00;66.60;;;;;;6244003;23;20000;-80
2021/04/04 05:11:59;;;;;;;5.07;2.27;;;2.90;67.10;;;;;;6245513;23;20008;-79
2021/04/04 05:14:25;;;;;;;6.53;2.10;;;3.00;66.80;;;;;;6243915;23;20015;-79
2021/04/04 05:16:53;;;;;;;5.43;2.10;;;2.90;67.20;;;;;;6246400;23;20023;-79
2021/04/04 05:19:19;;;;;;;4.90;2.10;;;2.90;67.20;;;;;;6243831;23;20087;-79
2021/04/04 05:21:45;;;;;;;5.00;1.77;;;2.90;67.30;;;;;;6270535;22;20044;-79
2021/04/04 05:24:14;;;;;;;3.67;1.90;;;2.90;67.40;;;;;;6271007;22;20019;-77
2021/04/04 05:26:42;;;;;;;4.00;1.80;;;3.10;67.20;;;;;;6245558;23;20008;-80
2021/04/04 05:29:09;;;;;;;3.93;1.90;;;3.00;67.40;;;;;;6245034;23;20008;-80
2021/04/04 05:31:44;;;;;;;6.67;2.20;;;3.00;67.40;;;;;;6245182;23;20005;-79
2021/04/04 05:34:15;;;;;;;4.27;1.80;;;3.00;67.50;;;;;;6244949;23;20012;-78
2021/04/04 05:37:01;;;;;;;3.67;1.97;;;3.00;67.50;;;;;;6244984;23;20000;-79
2021/04/04 05:39:30;;;;;;;7.37;2.50;;;3.10;67.40;;;;;;6245919;23;20043;-79
2021/04/04 05:42:00;;;;;;;5.03;2.37;;;3.10;67.10;;;;;;6245464;23;20008;-79
2021/04/04 05:44:51;;;;;;;3.30;1.90;;;3.10;67.70;;;;;;6245560;23;20403;-80
2021/04/04 05:47:46;;;;;;;4.20;1.80;;;3.20;67.60;;;;;;6244313;23;20046;-79
2021/04/04 05:50:23;;;;;;;3.27;1.60;;;3.20;68.00;;;;;;6218784;23;20077;-77
2021/04/04 05:53:06;;;;;;;4.20;1.90;;;3.20;68.20;;;;;;6245366;23;20035;-80
2021/04/04 05:55:50;;;;;;;;;;;3.20;67.90;;;;;;6244901;23;20011;-79
2021/04/04 05:58:22;;;;;;;4.73;2.17;;;3.30;68.10;;;;;;6244075;23;19899;-79
2021/04/04 06:00:52;;;;;;;2.97;1.77;;;3.30;67.50;;;;;;6246420;23;19996;-79
2021/04/04 06:03:49;;;;;;;3.83;1.80;;;3.40;67.00;;;;;;6243004;23;20004;-79
2021/04/04 06:06:30;;;;;;;3.13;1.70;;;3.50;67.00;;;;;;6268895;22;20300;-79
2021/04/04 06:09:26;;;;;;;3.55;1.98;;;3.50;66.60;;;;;;6244670;23;19996;-79
2021/04/04 06:12:12;;;;;;;6.47;2.10;;;3.60;66.50;;;;;;6245062;23;20004;-79
2021/04/04 06:15:03;;;;;;;5.27;2.80;;;3.70;66.20;;;;;;6244367;23;20095;-79
2021/04/04 06:17:46;;;;;;;3.07;1.90;;;3.80;65.40;;;;;;6243415;22;20040;-79
2021/04/04 06:20:25;;;;;;;4.90;2.10;;;3.90;66.10;;;;;;6244057;23;19996;-77
2021/04/04 06:23:10;;;;;;;6.73;2.63;;;3.90;66.20;;;;;;6244358;23;20020;-79
2021/04/04 06:25:48;;;;;;;6.33;2.93;;;3.90;66.20;;;;;;6243883;22;20009;-79
2021/04/04 06:28:51;;;;;;;7.37;2.50;;;3.90;65.90;;;;;;6243384;23;20366;-78
2021/04/04 06:31:59;;;;;;;8.83;2.70;;;4.00;66.20;;;;;;6244579;23;19992;-79
2021/04/04 06:34:49;;;;;;;4.67;2.70;;;4.10;65.40;;;;;;6244342;23;20103;-80
2021/04/04 06:37:34;;;;;;;5.90;2.90;;;4.20;64.70;;;;;;6218216;23;20415;-80
2021/04/04 06:40:14;;;;;;;6.43;2.80;;;4.30;65.10;;;;;;6244733;23;20087;-81
2021/04/04 06:42:52;;;;;;;10.40;3.13;;;4.40;63.90;;;;;;6244451;23;20046;-80
2021/04/04 06:45:48;;;;;;;7.03;3.20;;;4.50;64.30;;;;;;6245183;22;20436;-80
2021/04/04 06:48:42;;;;;;;8.53;3.20;;;4.60;63.90;;;;;;6243976;23;20423;-78
2021/04/04 06:51:32;;;;;;;7.60;2.40;;;4.70;63.50;;;;;;6244338;23;20004;-79
2021/04/04 06:54:29;;;;;;;4.77;3.00;;;4.80;64.10;;;;;;6269815;22;20079;-79
2021/04/04 06:57:01;;;;;;;7.60;2.80;;;4.90;63.50;;;;;;6218692;23;20004;-79
2021/04/04 06:59:51;;;;;;;7.17;2.80;;;5.00;63.00;;;;;;6244595;23;19999;-79
2021/04/04 07:02:20;;;;;;;8.30;3.40;;;5.10;63.30;;;;;;6216777;23;20007;-79
2021/04/04 07:04:48;;;;;;;6.07;2.77;;;5.10;63.00;;;;;;6244009;23;20086;-80
2021/04/04 07:07:33;;;;;;;6.03;3.03;;;5.30;63.20;;;;;;6217930;23;20067;-80
2021/04/04 07:10:07;;;;;;;8.60;2.70;;;5.40;63.20;;;;;;6244070;23;20004;-79
2021/04/04 07:12:59;;;;;;;7.33;2.97;;;5.50;62.80;;;;;;6217884;23;20494;-79
2021/04/04 07:16:15;;;;;;;6.40;2.40;;;5.60;63.00;;;;;;6243185;23;20039;-79
2021/04/04 07:19:15;;;;;;;7.47;2.80;;;5.60;62.80;;;;;;6194088;23;20379;-78
2021/04/04 07:21:59;;;;;;;9.87;3.03;;;5.70;62.80;;;;;;6268971;22;20016;-79
2021/04/04 07:24:53;;;;;;;5.60;2.43;;;5.80;63.10;;;;;;6242643;23;20012;-80
2021/04/04 07:27:56;;;;;;;5.10;2.63;;;5.90;63.50;;;;;;6243707;23;20027;-78
2021/04/04 07:30:45;;;;;;;6.77;2.73;;;6.00;61.80;;;;;;6242642;22;20000;-79
2021/04/04 07:33:31;;;;;;;8.87;2.93;;;6.10;62.10;;;;;;6268363;22;20015;-76
2021/04/04 07:36:27;;;;;;;6.63;3.07;;;6.10;62.20;;;;;;6245364;23;20000;-79
2021/04/04 07:39:26;;;;;;;6.47;2.63;;;6.10;62.10;;;;;;6242889;23;20005;-78
2021/04/04 07:42:11;;;;;;;7.80;2.73;;;6.30;62.10;;;;;;6243216;23;20493;-78
2021/04/04 07:45:06;;;;;;;10.77;3.37;;;6.30;61.60;;;;;;6242269;23;20067;-78
2021/04/04 07:47:55;;;;;;;13.33;3.10;;;6.30;62.60;;;;;;6242848;23;20135;-78
2021/04/04 07:50:54;;;;;;;6.17;2.73;;;6.40;60.80;;;;;;6242767;23;20339;-74
2021/04/04 07:53:42;;;;;;;6.07;2.80;;;6.50;61.80;;;;;;6235122;23;20115;-77
2021/04/04 07:56:20;;;;;;;7.80;3.10;;;6.50;62.10;;;;;;6243378;23;20050;-77
2021/04/04 07:59:24;;;;;;;10.30;3.20;;;6.60;60.90;;;;;;6245133;23;20066;-74
2021/04/04 08:02:00;;;;;;;8.00;2.47;;;6.60;60.60;;;;;;6242780;23;20012;-74
2021/04/04 08:04:39;;;;;;;8.00;3.07;;;6.60;60.10;;;;;;6242495;23;20008;-74
2021/04/04 08:07:30;;;;;;;5.87;2.93;;;6.60;60.30;;;;;;6217939;23;20015;-74
2021/04/04 08:10:10;;;;;;;8.93;2.88;;;6.70;60.10;;;;;;6234271;23;20004;-74
2021/04/04 08:13:00;;;;;;;8.23;2.77;;;6.70;60.10;;;;;;6243233;23;20008;-74
2021/04/04 08:15:57;;;;;;;7.37;2.63;;;6.80;59.70;;;;;;6242269;23;20006;-75
2021/04/04 08:18:24;;;;;;;11.07;3.50;;;6.80;59.80;;;;;;6242673;23;20004;-75
2021/04/04 08:20:54;;;;;;;5.80;3.00;;;6.80;60.00;;;;;;6243059;23;20004;-74
2021/04/04 08:23:56;;;;;;;8.20;3.07;;;6.90;59.90;;;;;;6243885;23;20446;-75
2021/04/04 08:26:32;;;;;;;6.63;3.03;;;7.00;60.40;;;;;;6242840;23;20008;-76
2021/04/04 08:29:16;;;;;;;8.53;3.03;;;7.10;60.30;;;;;;6244848;23;19992;-73
2021/04/04 08:31:54;;;;;;;8.73;3.17;;;7.10;59.90;;;;;;6243426;23;20012;-76
2021/04/04 08:34:42;;;;;;;5.47;3.07;;;7.10;59.50;;;;;;6243747;23;20004;-76
2021/04/04 08:37:21;;;;;;;5.33;2.90;;;7.10;60.10;;;;;;6242527;23;20011;-76
2021/04/04 08:39:53;;;;;;;9.17;3.53;;;7.10;60.30;;;;;;6243509;23;20415;-76
2021/04/04 08:42:19;;;;;;;5.00;2.55;;;7.30;60.40;;;;;;6243793;23;19996;-76
2021/04/04 08:44:54;;;;;;;9.27;2.90;;;7.30;60.30;;;;;;6244430;23;20362;-76
2021/04/04 08:47:29;;;;;;;12.10;5.07;;;7.40;60.20;;;;;;6245737;23;20000;-76
2021/04/04 08:49:57;;;;;;;9.00;3.43;;;7.50;59.80;;;;;;6244920;23;20082;-76
2021/04/04 08:52:31;;;;;;;8.93;3.33;;;7.50;58.90;;;;;;6243987;23;20004;-75
2021/04/04 08:54:57;;;;;;;5.37;2.73;;;7.40;58.60;;;;;;6245003;23;20039;-76
2021/04/04 08:57:36;;;;;;;8.00;3.23;;;7.50;59.10;;;;;;6244202;23;20004;-74
2021/04/04 09:00:10;;;;;;;9.00;3.00;;;7.60;58.50;;;;;;6246594;23;20474;-76
2021/04/04 09:02:43;;;;;;;5.77;2.50;;;7.60;58.10;;;;;;6246539;22;20024;-75
2021/04/04 09:05:11;;;;;;;12.67;3.40;;;7.60;58.20;;;;;;6246604;23;20019;-76
2021/04/04 09:07:44;;;;;;;11.73;3.40;;;7.60;58.50;;;;;;6270445;22;20034;-75
2021/04/04 09:10:15;;;;;;;7.10;3.00;;;7.60;58.80;;;;;;6244194;23;20012;-76
2021/04/04 09:12:43;;;;;;;9.00;2.83;;;7.70;59.50;;;;;;6245520;23;20004;-75
2021/04/04 09:15:11;;;;;;;11.30;4.50;;;7.90;58.40;;;;;;6244437;23;20022;-75
2021/04/04 09:17:38;;;;;;;8.27;2.92;;;7.90;57.90;;;;;;6244343;23;20431;-74
2021/04/04 09:20:06;;;;;;;9.73;3.50;;;8.00;57.90;;;;;;6244692;23;20024;-75
2021/04/04 09:22:35;;;;;;;8.00;3.20;;;8.00;58.00;;;;;;6244965;23;20087;-75
2021/04/04 09:25:11;;;;;;;6.83;3.27;;;8.00;57.60;;;;;;6244743;23;20023;-75
2021/04/04 09:27:46;;;;;;;11.60;3.50;;;8.00;57.30;;;;;;6244815;23;20449;-73
2021/04/04 09:30:23;;;;;;;9.95;3.00;;;8.10;57.30;;;;;;6245594;23;20011;-74
2021/04/04 09:33:03;;;;;;;7.50;3.20;;;8.10;57.50;;;;;;6245082;23;20039;-75
2021/04/04 09:35:30;;;;;;;5.90;2.80;;;8.20;57.30;;;;;;6243192;23;20001;-75
2021/04/04 09:38:04;;;;;;;8.07;3.27;;;8.30;57.70;;;;;;6244888;23;20034;-75
2021/04/04 09:40:30;;;;;;;6.10;3.05;;;8.30;57.20;;;;;;6268677;22;20011;-75
2021/04/04 09:43:14;;;;;;;6.53;3.10;;;8.40;57.10;;;;;;6243875;23;20000;-76
2021/04/04 09:45:41;;;;;;;8.35;2.83;;;8.50;56.80;;;;;;6244471;23;20016;-76
2021/04/04 09:48:20;;;;;;;9.20;3.43;;;8.50;56.70;;;;;;6245775;23;19998;-77
2021/04/04 09:50:47;;;;;;;8.23;3.22;;;8.60;56.80;;;;;;6269656;22;20011;-75
2021/04/04 09:53:13;;;;;;;10.85;3.40;;;8.60;56.30;;;;;;6245184;23;19999;-74
2021/04/04 09:55:45;;;;;;;7.65;3.15;;;8.60;55.80;;;;;;6244696;23;19993;-75
2021/04/04 09:58:14;;;;;;;9.43;3.50;;;8.80;56.50;;;;;;6269465;22;20034;-76
2021/04/04 10:00:43;;;;;;;7.85;3.22;;;8.80;55.90;;;;;;6244405;23;20000;-78
2021/04/04 10:03:14;;;;;;;6.68;2.95;;;8.80;55.70;;;;;;6244141;23;20001;-75
2021/04/04 10:05:44;;;;;;;7.47;2.80;;;8.90;55.60;;;;;;6269550;22;20013;-76
2021/04/04 10:08:14;;;;;;;7.88;2.72;;;8.90;55.30;;;;;;6243936;23;20026;-77
2021/04/04 10:10:51;;;;;;;11.45;3.15;;;8.90;55.70;;;;;;6244274;23;19996;-75
2021/04/04 10:13:27;;;;;;;5.70;2.80;;;9.00;55.80;;;;;;6242994;23;20008;-76
2021/04/04 10:15:53;;;;;;;9.63;3.08;;;9.10;54.60;;;;;;6269244;22;20112;-75
2021/04/04 10:18:20;;;;;;;6.93;2.95;;;9.20;54.70;;;;;;6267606;22;20012;-76
2021/04/04 10:20:46;;;;;;;8.88;3.30;;;9.20;55.40;;;;;;6243817;23;20000;-75
2021/04/04 10:23:13;;;;;;;5.82;2.70;;;9.30;55.40;;;;;;6244971;23;20039;-76
2021/04/04 10:26:05;;;;;;;7.22;2.50;;;9.30;54.40;;;;;;6244137;23;20008;-74
2021/04/04 10:28:49;;;;;;;5.45;2.65;;;9.40;54.70;;;;;;6244909;22;20177;-76
2021/04/04 10:31:16;;;;;;;7.50;2.83;;;9.40;54.00;;;;;;6242711;23;20032;-75
2021/04/04 10:33:42;;;;;;;7.70;2.80;;;9.30;53.60;;;;;;6242986;23;20008;-75
2021/04/04 10:36:16;;;;;;;4.97;2.40;;;9.40;53.50;;;;;;6243318;23;20378;-75
2021/04/04 10:38:42;;;;;;;6.30;2.67;;;9.50;52.60;;;;;;6243381;23;20485;-74
2021/04/04 10:41:08;;;;;;;6.43;3.00;;;9.60;53.70;;;;;;6243210;23;20083;-75
2021/04/04 10:43:42;;;;;;;7.05;2.47;;;9.60;54.20;;;;;;6241946;23;20050;-76
2021/04/04 10:46:11;;;;;;;6.18;2.10;;;9.60;53.20;;;;;;6243696;23;20050;-77
2021/04/04 10:48:39;;;;;;;5.65;2.20;;;9.80;52.70;;;;;;6243275;22;20004;-76
2021/04/04 10:51:07;;;;;;;8.15;2.58;;;9.90;52.30;;;;;;6243759;23;20055;-77
2021/04/04 10:53:35;;;;;;;8.90;2.47;;;10.00;51.60;;;;;;6217423;23;20042;-77
2021/04/04 10:56:03;;;;;;;5.28;2.15;;;10.00;50.90;;;;;;6245202;23;20000;-76
2021/04/04 10:58:29;;;;;;;6.60;2.30;;;10.10;50.70;;;;;;6244041;23;19993;-77
2021/04/04 11:00:57;;;;;;;6.10;2.42;;;10.10;50.00;;;;;;6243083;23;20027;-76
2021/04/04 11:03:23;;;;;;;7.10;3.33;;;10.20;49.70;;;;;;6244200;23;20000;-75
2021/04/04 11:05:50;;;;;;;5.38;2.20;;;10.20;49.50;;;;;;6243307;23;20027;-73
2021/04/04 11:08:19;;;;;;;6.20;2.47;;;10.20;49.40;;;;;;6243403;23;19992;-73
2021/04/04 11:10:46;;;;;;;5.40;2.40;;;10.30;49.30;;;;;;6242973;23;20004;-73
2021/04/04 11:13:17;;;;;;;7.38;2.70;;;10.30;49.10;;;;;;6242818;23;20004;-74
2021/04/04 11:15:59;;;;;;;5.40;2.33;;;10.30;49.40;;;;;;6268881;22;20039;-74
2021/04/04 11:18:41;;;;;;;7.05;2.67;;;10.40;50.40;;;;;;6243902;23;20218;-75
2021/04/04 11:21:12;;;;;;;7.40;2.65;;;10.50;49.60;;;;;;6242714;23;20002;-75
2021/04/04 11:23:38;;;;;;;5.72;2.50;;;10.60;49.40;;;;;;6244963;23;20006;-76
2021/04/04 11:26:23;;;;;;;7.90;2.20;;;10.60;48.80;;;;;;6242867;23;20009;-76
2021/04/04 11:29:15;;;;;;;5.07;2.20;;;10.70;47.70;;;;;;6243185;22;20316;-76
2021/04/04 11:31:48;;;;;;;4.18;2.00;;;10.80;47.70;;;;;;6245103;23;20001;-76
2021/04/04 11:34:33;;;;;;;6.85;2.33;;;10.80;48.20;;;;;;6242527;23;20439;-76
2021/04/04 11:37:06;;;;;;;5.45;2.58;;;10.90;47.40;;;;;;6268912;22;20415;-76
2021/04/04 11:39:32;;;;;;;5.25;2.38;;;11.00;47.40;;;;;;6242806;23;20225;-76
2021/04/04 11:42:04;;;;;;;7.30;2.47;;;11.10;46.90;;;;;;6243434;23;20332;-76
2021/04/04 11:44:51;;;;;;;6.60;2.55;;;11.20;47.90;;;;;;6244296;23;20011;-76
2021/04/04 11:47:16;;;;;;;5.25;2.00;;;11.10;46.90;;;;;;6268565;22;20043;-76
2021/04/04 11:49:44;;;;;;;5.63;2.40;;;11.10;47.40;;;;;;6243152;23;20419;-76
2021/04/04 11:52:10;;;;;;;5.75;2.38;;;11.10;48.00;;;;;;6244523;23;20019;-76
2021/04/04 11:54:55;;;;;;;4.18;2.53;;;11.20;48.50;;;;;;6217123;23;20443;-76
2021/04/04 11:57:23;;;;;;;4.72;2.50;;;11.40;48.40;;;;;;6217475;23;20008;-76
2021/04/04 11:59:54;;;;;;;4.25;2.15;;;11.40;47.00;;;;;;6218165;23;20047;-76
2021/04/04 12:02:22;;;;;;;6.32;2.10;;;11.60;47.40;;;;;;6242585;23;20009;-77
2021/04/04 12:05:13;;;;;;;10.05;3.65;;;11.80;47.70;;;;;;6268964;22;20453;-76
2021/04/04 12:07:56;;;;;;;6.85;2.67;;;12.00;45.10;;;;;;6268452;22;20009;-77
2021/04/04 12:10:27;;;;;;;7.07;2.88;;;12.00;43.40;;;;;;6268041;22;20070;-77
2021/04/04 12:12:53;;;;;;;5.45;2.40;;;12.20;44.30;;;;;;6243257;23;20008;-77
2021/04/04 12:15:24;;;;;;;5.00;2.40;;;12.30;43.60;;;;;;6242579;23;20013;-76
2021/04/04 12:18:00;;;;;;;5.40;2.15;;;12.40;44.10;;;;;;6245562;22;20032;-76
2021/04/04 12:20:33;;;;;;;7.90;2.15;;;12.50;44.00;;;;;;6244781;23;20004;-76
2021/04/04 12:23:18;;;;;;;6.50;2.35;;;12.70;42.00;;;;;;6244443;23;20098;-76
2021/04/04 12:25:44;;;;;;;6.10;2.22;;;12.80;41.00;;;;;;6245393;23;20015;-76
2021/04/04 12:28:10;;;;;;;9.57;2.53;;;13.00;41.60;;;;;;6270299;22;20008;-76
2021/04/04 12:30:41;;;;;;;6.18;2.55;;;13.20;42.60;;;;;;6244143;23;20015;-76
2021/04/04 12:33:17;;;;;;;7.35;2.50;;;13.50;42.70;;;;;;6245455;23;20004;-76
2021/04/04 12:35:53;;;;;;;4.18;2.45;;;13.60;40.60;;;;;;6245235;23;20001;-77
2021/04/04 12:38:25;;;;;;;5.28;2.50;;;13.70;39.30;;;;;;6245865;23;20007;-77
2021/04/04 12:40:51;;;;;;;;;;;13.90;38.60;;;;;;6247105;23;20066;-77
2021/04/04 12:43:17;;;;;;;5.97;2.60;;;14.00;37.90;;;;;;6244233;23;19978;-77
2021/04/04 12:45:42;;;;;;;6.60;2.50;;;14.20;38.90;;;;;;6244888;23;20446;-77
2021/04/04 12:48:20;;;;;;;6.53;2.67;;;14.30;38.00;;;;;;6246504;23;19996;-77
2021/04/04 12:50:57;;;;;;;7.50;2.92;;;14.40;37.60;;;;;;6245309;23;20394;-77
2021/04/04 12:53:34;;;;;;;5.65;2.30;;;14.50;37.30;;;;;;6244937;23;20000;-77
2021/04/04 12:56:01;;;;;;;6.80;3.75;;;14.70;37.90;;;;;;6246845;23;20445;-77
2021/04/04 12:58:38;;;;;;;9.27;3.58;;;15.00;37.90;;;;;;6246155;23;20027;-78
2021/04/04 13:01:05;;;;;;;7.93;3.55;;;15.10;37.10;;;;;;6246822;23;20000;-77
2021/04/04 13:03:35;;;;;;;5.80;3.08;;;15.30;36.20;;;;;;6244411;23;20536;-78
2021/04/04 13:06:01;;;;;;;8.10;3.55;;;15.40;36.10;;;;;;6246708;23;20031;-78
2021/04/04 13:08:30;;;;;;;10.93;3.25;;;15.50;35.80;;;;;;6245993;22;20436;-77
2021/04/04 13:11:02;;;;;;;5.38;2.63;;;15.80;35.60;;;;;;6245010;23;19996;-77
2021/04/04 13:13:36;;;;;;;5.13;2.85;;;16.00;35.00;;;;;;6244205;23;20044;-77
2021/04/04 13:16:12;;;;;;;4.65;2.33;;;16.40;34.20;;;;;;6246693;23;20008;-77
2021/04/04 13:18:43;;;;;;;4.70;2.58;;;16.90;34.10;;;;;;6246430;23;20003;-77
2021/04/04 13:21:20;;;;;;;4.10;2.53;;;17.50;32.90;;;;;;6246233;23;20071;-77
2021/04/04 13:24:00;;;;;;;5.28;2.35;;;18.00;32.90;;;;;;6219581;23;20044;-77
2021/04/04 13:26:31;;;;;;;5.20;2.47;;;18.60;31.00;;;;;;6217786;23;20022;-77
2021/04/04 13:29:06;;;;;;;4.82;2.63;;;19.00;31.80;;;;;;6219167;23;20003;-77